sensor_id;sensor_type;location;lat;lon;timestamp;pressure;altitude;pressure_sealevel;temperature;humidity
67457;BME280;54319;52.038;4.640;2023-05-20T00:02:15;102598.09;;;11.38;82.81
67457;BME280;54319;52.038;4.640;2023-05-20T00:04:41;102637.66;;;11.59;82.48
67457;BME280;54319;52.038;4.640;2023-05-20T00:07:08;102630.81;;;11.55;82.63
67457;BME280;54319;52.038;4.640;2023-05-20T00:09:37;102622.97;;;11.52;81.87
67457;BME280;54319;52.038;4.640;2023-05-20T00:12:04;102625.03;;;11.50;81.65
67457;BME280;54319;52.038;4.640;2023-05-20T00:14:32;102622.31;;;11.50;82.32
67457;BME280;54319;52.038;4.640;2023-05-20T00:16:59;102632.91;;;11.44;82.31
67457;BME280;54319;52.038;4.640;2023-05-20T00:19:26;102630.53;;;11.41;82.23
67457;BME280;54319;52.038;4.640;2023-05-20T00:21:52;102640.78;;;11.39;82.08
67457;BME280;54319;52.038;4.640;2023-05-20T00:24:21;102624.22;;;11.33;82.29
67457;BME280;54319;52.038;4.640;2023-05-20T00:26:48;102628.31;;;11.37;81.69
67457;BME280;54319;52.038;4.640;2023-05-20T00:29:15;102623.69;;;11.29;81.85
67457;BME280;54319;52.038;4.640;2023-05-20T00:31:43;102630.03;;;11.29;82.28
67457;BME280;54319;52.038;4.640;2023-05-20T00:34:09;102624.22;;;11.24;81.60
67457;BME280;54319;52.038;4.640;2023-05-20T00:36:36;102628.84;;;11.24;81.28
67457;BME280;54319;52.038;4.640;2023-05-20T00:39:03;102625.41;;;11.22;81.96
67457;BME280;54319;52.038;4.640;2023-05-20T00:41:30;102621.84;;;11.13;81.73
67457;BME280;54319;52.038;4.640;2023-05-20T00:43:57;102625.44;;;11.13;81.82
67457;BME280;54319;52.038;4.640;2023-05-20T00:46:25;102624.91;;;11.10;81.74
67457;BME280;54319;52.038;4.640;2023-05-20T00:48:54;102622.38;;;11.08;81.53
67457;BME280;54319;52.038;4.640;2023-05-20T00:51:21;102619.66;;;11.08;81.55
67457;BME280;54319;52.038;4.640;2023-05-20T00:53:48;102609.06;;;11.05;81.72
67457;BME280;54319;52.038;4.640;2023-05-20T00:56:16;102604.28;;;10.99;81.89
67457;BME280;54319;52.038;4.640;2023-05-20T00:58:43;102608.03;;;10.98;82.39
67457;BME280;54319;52.038;4.640;2023-05-20T01:01:10;102600.84;;;10.97;82.08
67457;BME280;54319;52.038;4.640;2023-05-20T01:03:37;102601.19;;;10.94;82.32
67457;BME280;54319;52.038;4.640;2023-05-20T01:06:05;102610.75;;;10.90;83.02
67457;BME280;54319;52.038;4.640;2023-05-20T01:08:31;102602.06;;;10.86;82.92
67457;BME280;54319;52.038;4.640;2023-05-20T01:11:03;102594.03;;;10.84;82.74
67457;BME280;54319;52.038;4.640;2023-05-20T01:13:35;102593.38;;;10.82;82.72
67457;BME280;54319;52.038;4.640;2023-05-20T01:16:03;102590.97;;;10.79;83.22
67457;BME280;54319;52.038;4.640;2023-05-20T01:18:31;102573.25;;;10.67;83.46
67457;BME280;54319;52.038;4.640;2023-05-20T01:21:01;102592.00;;;10.70;83.46
67457;BME280;54319;52.038;4.640;2023-05-20T01:23:33;102603.25;;;10.75;83.47
67457;BME280;54319;52.038;4.640;2023-05-20T01:26:00;102596.94;;;10.75;82.98
67457;BME280;54319;52.038;4.640;2023-05-20T01:28:27;102587.56;;;10.69;83.62
67457;BME280;54319;52.038;4.640;2023-05-20T01:30:57;102587.03;;;10.74;83.48
67457;BME280;54319;52.038;4.640;2023-05-20T01:33:27;102580.75;;;10.73;83.67
67457;BME280;54319;52.038;4.640;2023-05-20T01:35:55;102576.47;;;10.70;84.17
67457;BME280;54319;52.038;4.640;2023-05-20T01:38:23;102575.97;;;10.67;84.55
67457;BME280;54319;52.038;4.640;2023-05-20T01:40:51;102574.25;;;10.66;84.59
67457;BME280;54319;52.038;4.640;2023-05-20T01:43:19;102573.25;;;10.67;84.81
67457;BME280;54319;52.038;4.640;2023-05-20T01:45:46;102582.47;;;10.66;84.94
67457;BME280;54319;52.038;4.640;2023-05-20T01:48:13;102580.75;;;10.65;84.67
67457;BME280;54319;52.038;4.640;2023-05-20T01:50:41;102576.66;;;10.61;85.09
67457;BME280;54319;52.038;4.640;2023-05-20T01:53:07;102576.66;;;10.61;85.33
67457;BME280;54319;52.038;4.640;2023-05-20T01:55:34;102575.09;;;10.58;85.28
67457;BME280;54319;52.038;4.640;2023-05-20T01:58:02;102560.94;;;10.46;85.43
67457;BME280;54319;52.038;4.640;2023-05-20T02:00:29;102576.63;;;10.52;86.16
67457;BME280;54319;52.038;4.640;2023-05-20T02:02:56;102568.78;;;10.49;86.46
67457;BME280;54319;52.038;4.640;2023-05-20T02:05:22;102576.97;;;10.49;86.31
67457;BME280;54319;52.038;4.640;2023-05-20T02:07:49;102572.53;;;10.48;86.30
67457;BME280;54319;52.038;4.640;2023-05-20T02:10:16;102550.34;;;10.35;86.30
67457;BME280;54319;52.038;4.640;2023-05-20T02:12:42;102576.81;;;10.42;86.56
67457;BME280;54319;52.038;4.640;2023-05-20T02:15:11;102571.97;;;10.36;86.93
67457;BME280;54319;52.038;4.640;2023-05-20T02:17:38;102539.22;;;10.20;86.99
67457;BME280;54319;52.038;4.640;2023-05-20T02:20:11;102569.09;;;10.38;87.13
67457;BME280;54319;52.038;4.640;2023-05-20T02:22:38;102581.84;;;10.37;87.53
67457;BME280;54319;52.038;4.640;2023-05-20T02:25:06;102573.88;;;10.36;87.25
67457;BME280;54319;52.038;4.640;2023-05-20T02:27:33;102577.44;;;10.36;87.91
67457;BME280;54319;52.038;4.640;2023-05-20T02:30:00;102577.44;;;10.36;88.11
67457;BME280;54319;52.038;4.640;2023-05-20T02:32:28;102575.25;;;10.40;88.35
67457;BME280;54319;52.038;4.640;2023-05-20T02:34:54;102565.34;;;10.39;87.91
67457;BME280;54319;52.038;4.640;2023-05-20T02:37:21;102568.78;;;10.41;88.24
67457;BME280;54319;52.038;4.640;2023-05-20T02:39:48;102565.19;;;10.40;88.40
67457;BME280;54319;52.038;4.640;2023-05-20T02:42:14;102553.06;;;10.35;87.90
67457;BME280;54319;52.038;4.640;2023-05-20T02:44:41;102558.69;;;10.41;88.04
67457;BME280;54319;52.038;4.640;2023-05-20T02:47:08;102556.47;;;10.37;88.01
67457;BME280;54319;52.038;4.640;2023-05-20T02:49:36;102545.38;;;10.30;88.17
67457;BME280;54319;52.038;4.640;2023-05-20T02:52:03;102550.34;;;10.35;88.05
67457;BME280;54319;52.038;4.640;2023-05-20T02:54:29;102559.56;;;10.42;88.03
67457;BME280;54319;52.038;4.640;2023-05-20T02:56:56;102552.88;;;10.36;87.69
67457;BME280;54319;52.038;4.640;2023-05-20T02:59:23;102558.69;;;10.41;87.99
67457;BME280;54319;52.038;4.640;2023-05-20T03:01:49;102561.44;;;10.41;87.91
67457;BME280;54319;52.038;4.640;2023-05-20T03:04:16;102550.00;;;10.38;87.59
67457;BME280;54319;52.038;4.640;2023-05-20T03:06:47;102565.03;;;10.42;87.59
67457;BME280;54319;52.038;4.640;2023-05-20T03:09:16;102554.44;;;10.39;87.95
67457;BME280;54319;52.038;4.640;2023-05-20T03:11:43;102557.50;;;10.36;88.20
67457;BME280;54319;52.038;4.640;2023-05-20T03:14:10;102550.34;;;10.35;88.66
67457;BME280;54319;52.038;4.640;2023-05-20T03:16:37;102564.13;;;10.33;89.05
67457;BME280;54319;52.038;4.640;2023-05-20T03:19:03;102567.03;;;10.32;88.82
67457;BME280;54319;52.038;4.640;2023-05-20T03:21:31;102542.09;;;10.18;89.21
67457;BME280;54319;52.038;4.640;2023-05-20T03:23:59;102544.84;;;10.18;89.00
67457;BME280;54319;52.038;4.640;2023-05-20T03:26:26;102564.13;;;10.25;89.54
67457;BME280;54319;52.038;4.640;2023-05-20T03:28:53;102570.75;;;10.22;89.68
67457;BME280;54319;52.038;4.640;2023-05-20T03:31:19;102562.22;;;10.17;89.74
67457;BME280;54319;52.038;4.640;2023-05-20T03:33:46;102573.47;;;10.22;89.67
67457;BME280;54319;52.038;4.640;2023-05-20T03:36:13;102568.22;;;10.21;89.74
67457;BME280;54319;52.038;4.640;2023-05-20T03:38:39;102566.50;;;10.20;89.75
67457;BME280;54319;52.038;4.640;2023-05-20T03:41:07;102512.75;;;9.87;89.63
67457;BME280;54319;52.038;4.640;2023-05-20T03:43:34;102562.22;;;10.17;90.16
67457;BME280;54319;52.038;4.640;2023-05-20T03:46:01;102560.19;;;10.19;90.04
67457;BME280;54319;52.038;4.640;2023-05-20T03:48:27;102557.63;;;10.18;90.12
67457;BME280;54319;52.038;4.640;2023-05-20T03:50:54;102555.25;;;10.23;89.84
67457;BME280;54319;52.038;4.640;2023-05-20T03:53:21;102550.31;;;10.26;89.44
67457;BME280;54319;52.038;4.640;2023-05-20T03:55:47;102555.09;;;10.24;89.79
67457;BME280;54319;52.038;4.640;2023-05-20T03:58:17;102551.16;;;10.27;89.81
67457;BME280;54319;52.038;4.640;2023-05-20T04:00:46;102557.50;;;10.27;89.56
67457;BME280;54319;52.038;4.640;2023-05-20T04:03:13;102558.16;;;10.30;89.87
67457;BME280;54319;52.038;4.640;2023-05-20T04:05:40;102547.94;;;10.32;89.92
67457;BME280;54319;52.038;4.640;2023-05-20T04:08:06;102544.88;;;10.35;89.68
67457;BME280;54319;52.038;4.640;2023-05-20T04:10:34;102543.84;;;10.36;89.52
67457;BME280;54319;52.038;4.640;2023-05-20T04:13:01;102547.59;;;10.35;89.32
67457;BME280;54319;52.038;4.640;2023-05-20T04:15:29;102544.88;;;10.35;89.25
67457;BME280;54319;52.038;4.640;2023-05-20T04:17:55;102555.25;;;10.39;89.05
67457;BME280;54319;52.038;4.640;2023-05-20T04:20:22;102558.69;;;10.41;89.35
67457;BME280;54319;52.038;4.640;2023-05-20T04:22:49;102550.38;;;10.43;89.59
67457;BME280;54319;52.038;4.640;2023-05-20T04:25:16;102557.19;;;10.47;89.11
67457;BME280;54319;52.038;4.640;2023-05-20T04:27:43;102551.91;;;10.54;89.14
67457;BME280;54319;52.038;4.640;2023-05-20T04:30:11;102555.81;;;10.60;88.48
67457;BME280;54319;52.038;4.640;2023-05-20T04:32:39;102551.06;;;10.62;88.73
67457;BME280;54319;52.038;4.640;2023-05-20T04:35:06;102558.91;;;10.65;88.80
67457;BME280;54319;52.038;4.640;2023-05-20T04:37:36;102550.38;;;10.68;88.70
67457;BME280;54319;52.038;4.640;2023-05-20T04:40:03;102551.06;;;10.70;88.39
67457;BME280;54319;52.038;4.640;2023-05-20T04:42:31;102545.28;;;10.65;88.47
67457;BME280;54319;52.038;4.640;2023-05-20T04:44:58;102563.00;;;10.77;88.40
67457;BME280;54319;52.038;4.640;2023-05-20T04:47:26;102560.94;;;10.79;88.48
67457;BME280;54319;52.038;4.640;2023-05-20T04:49:55;102565.72;;;10.85;89.00
67457;BME280;54319;52.038;4.640;2023-05-20T04:52:22;102563.66;;;10.88;88.73
67457;BME280;54319;52.038;4.640;2023-05-20T04:54:50;102564.34;;;10.90;88.96
67457;BME280;54319;52.038;4.640;2023-05-20T04:57:16;102559.91;;;10.97;89.00
67457;BME280;54319;52.038;4.640;2023-05-20T04:59:45;102556.31;;;11.05;89.00
67457;BME280;54319;52.038;4.640;2023-05-20T05:02:12;102557.31;;;11.12;89.16
67457;BME280;54319;52.038;4.640;2023-05-20T05:04:38;102548.75;;;11.15;88.85
67457;BME280;54319;52.038;4.640;2023-05-20T05:07:06;102552.66;;;11.29;88.54
67457;BME280;54319;52.038;4.640;2023-05-20T05:09:33;102550.94;;;11.36;87.74
67457;BME280;54319;52.038;4.640;2023-05-20T05:12:00;102538.66;;;11.32;87.57
67457;BME280;54319;52.038;4.640;2023-05-20T05:14:27;102565.94;;;11.49;87.31
67457;BME280;54319;52.038;4.640;2023-05-20T05:16:53;102549.34;;;11.50;87.21
67457;BME280;54319;52.038;4.640;2023-05-20T05:19:20;102550.53;;;11.56;87.09
67457;BME280;54319;52.038;4.640;2023-05-20T05:21:47;102544.34;;;11.62;87.06
67457;BME280;54319;52.038;4.640;2023-05-20T05:24:15;102552.16;;;11.73;87.23
67457;BME280;54319;52.038;4.640;2023-05-20T05:26:42;102544.28;;;11.79;86.96
67457;BME280;54319;52.038;4.640;2023-05-20T05:29:08;102555.84;;;11.89;86.34
67457;BME280;54319;52.038;4.640;2023-05-20T05:31:35;102543.84;;;11.98;85.92
67457;BME280;54319;52.038;4.640;2023-05-20T05:34:01;102549.28;;;12.07;85.86
67457;BME280;54319;52.038;4.640;2023-05-20T05:36:31;102546.00;;;12.11;84.67
67457;BME280;54319;52.038;4.640;2023-05-20T05:38:57;102544.09;;;12.20;85.03
67457;BME280;54319;52.038;4.640;2023-05-20T05:41:25;102544.19;;;12.27;84.43
67457;BME280;54319;52.038;4.640;2023-05-20T05:43:52;102544.81;;;12.37;84.25
67457;BME280;54319;52.038;4.640;2023-05-20T05:46:19;102541.50;;;12.42;84.29
67457;BME280;54319;52.038;4.640;2023-05-20T05:48:46;102544.88;;;12.52;83.93
67457;BME280;54319;52.038;4.640;2023-05-20T05:51:14;102536.97;;;12.57;83.60
67457;BME280;54319;52.038;4.640;2023-05-20T05:53:41;102527.22;;;12.55;83.60
67457;BME280;54319;52.038;4.640;2023-05-20T05:56:08;102535.19;;;12.65;83.36
67457;BME280;54319;52.038;4.640;2023-05-20T05:58:36;102536.69;;;12.67;82.75
67457;BME280;54319;52.038;4.640;2023-05-20T06:01:03;102536.03;;;12.65;82.55
67457;BME280;54319;52.038;4.640;2023-05-20T06:03:30;102545.38;;;12.71;82.78
67457;BME280;54319;52.038;4.640;2023-05-20T06:05:57;102545.03;;;12.74;83.08
67457;BME280;54319;52.038;4.640;2023-05-20T06:08:24;102545.97;;;12.81;82.21
67457;BME280;54319;52.038;4.640;2023-05-20T06:10:51;102535.50;;;12.85;81.71
67457;BME280;54319;52.038;4.640;2023-05-20T06:13:17;102543.19;;;12.90;80.92
67457;BME280;54319;52.038;4.640;2023-05-20T06:15:45;102545.06;;;12.89;79.81
67457;BME280;54319;52.038;4.640;2023-05-20T06:18:14;102539.41;;;12.91;79.68
67457;BME280;54319;52.038;4.640;2023-05-20T06:20:40;102535.25;;;12.95;79.68
67457;BME280;54319;52.038;4.640;2023-05-20T06:23:07;102545.53;;;12.93;79.39
67457;BME280;54319;52.038;4.640;2023-05-20T06:25:34;102546.59;;;12.92;79.50
67457;BME280;54319;52.038;4.640;2023-05-20T06:28:00;102538.53;;;12.90;79.21
67457;BME280;54319;52.038;4.640;2023-05-20T06:30:27;102529.66;;;12.88;79.66
67457;BME280;54319;52.038;4.640;2023-05-20T06:32:55;102543.19;;;12.90;79.95
67457;BME280;54319;52.038;4.640;2023-05-20T06:35:22;102537.88;;;12.88;79.80
67457;BME280;54319;52.038;4.640;2023-05-20T06:37:48;102542.97;;;12.91;79.79
67457;BME280;54319;52.038;4.640;2023-05-20T06:40:15;102539.69;;;12.96;80.01
67457;BME280;54319;52.038;4.640;2023-05-20T06:42:41;102533.84;;;12.99;79.55
67457;BME280;54319;52.038;4.640;2023-05-20T06:45:09;102533.84;;;12.99;79.54
67457;BME280;54319;52.038;4.640;2023-05-20T06:47:35;102532.97;;;12.98;78.75
67457;BME280;54319;52.038;4.640;2023-05-20T06:50:04;102530.34;;;13.05;78.47
67457;BME280;54319;52.038;4.640;2023-05-20T06:52:31;102534.41;;;13.09;78.90
67457;BME280;54319;52.038;4.640;2023-05-20T06:54:57;102511.34;;;13.03;78.75
67457;BME280;54319;52.038;4.640;2023-05-20T06:57:24;102533.09;;;13.20;78.66
67457;BME280;54319;52.038;4.640;2023-05-20T06:59:51;102514.75;;;13.21;78.93
67457;BME280;54319;52.038;4.640;2023-05-20T07:02:18;102473.56;;;12.99;78.50
67457;BME280;54319;52.038;4.640;2023-05-20T07:04:44;102521.28;;;13.35;78.11
67457;BME280;54319;52.038;4.640;2023-05-20T07:07:12;102517.63;;;13.42;77.83
67457;BME280;54319;52.038;4.640;2023-05-20T07:09:39;102516.94;;;13.55;78.14
67457;BME280;54319;52.038;4.640;2023-05-20T07:12:06;102478.06;;;13.67;77.99
67457;BME280;54319;52.038;4.640;2023-05-20T07:14:33;102506.63;;;14.59;74.76
67457;BME280;54319;52.038;4.640;2023-05-20T07:16:59;102510.22;;;15.52;70.83
67457;BME280;54319;52.038;4.640;2023-05-20T07:19:26;102504.97;;;16.46;68.06
67457;BME280;54319;52.038;4.640;2023-05-20T07:21:52;102508.94;;;17.18;64.29
67457;BME280;54319;52.038;4.640;2023-05-20T07:24:20;102512.34;;;17.72;60.79
67457;BME280;54319;52.038;4.640;2023-05-20T07:26:47;102517.00;;;18.24;60.20
67457;BME280;54319;52.038;4.640;2023-05-20T07:29:14;102512.47;;;18.55;58.87
67457;BME280;54319;52.038;4.640;2023-05-20T07:31:40;102510.53;;;18.62;57.47
67457;BME280;54319;52.038;4.640;2023-05-20T07:34:07;102491.78;;;18.64;57.11
67457;BME280;54319;52.038;4.640;2023-05-20T07:36:33;102500.00;;;18.97;58.00
67457;BME280;54319;52.038;4.640;2023-05-20T07:39:02;102502.88;;;19.46;55.00
67457;BME280;54319;52.038;4.640;2023-05-20T07:41:30;102500.50;;;19.99;53.20
67457;BME280;54319;52.038;4.640;2023-05-20T07:43:57;102502.78;;;20.44;52.15
67457;BME280;54319;52.038;4.640;2023-05-20T07:46:23;102496.38;;;20.32;51.63
67457;BME280;54319;52.038;4.640;2023-05-20T07:48:50;102491.31;;;20.29;52.54
67457;BME280;54319;52.038;4.640;2023-05-20T07:51:16;102491.28;;;20.17;51.57
67457;BME280;54319;52.038;4.640;2023-05-20T07:53:44;102497.47;;;20.00;52.44
67457;BME280;54319;52.038;4.640;2023-05-20T07:56:10;102492.66;;;19.77;55.03
67457;BME280;54319;52.038;4.640;2023-05-20T07:58:40;102493.25;;;19.48;54.76
67457;BME280;54319;52.038;4.640;2023-05-20T08:01:07;102490.81;;;19.21;54.58
67457;BME280;54319;52.038;4.640;2023-05-20T08:03:34;102479.50;;;19.04;55.62
67457;BME280;54319;52.038;4.640;2023-05-20T08:06:01;102486.13;;;19.22;55.24
67457;BME280;54319;52.038;4.640;2023-05-20T08:08:27;102488.28;;;19.20;53.96
67457;BME280;54319;52.038;4.640;2023-05-20T08:10:55;102490.81;;;19.40;56.80
67457;BME280;54319;52.038;4.640;2023-05-20T08:13:22;102489.38;;;19.68;55.01
67457;BME280;54319;52.038;4.640;2023-05-20T08:15:53;102468.09;;;19.99;52.61
67457;BME280;54319;52.038;4.640;2023-05-20T08:18:20;102488.94;;;20.80;51.63
67457;BME280;54319;52.038;4.640;2023-05-20T08:20:46;102471.81;;;21.07;50.78
67457;BME280;54319;52.038;4.640;2023-05-20T08:23:13;102484.28;;;21.45;48.14
67457;BME280;54319;52.038;4.640;2023-05-20T08:25:40;102487.28;;;21.85;47.12
67457;BME280;54319;52.038;4.640;2023-05-20T08:28:07;102465.97;;;22.02;47.22
67457;BME280;54319;52.038;4.640;2023-05-20T08:30:34;102486.16;;;22.15;46.32
67457;BME280;54319;52.038;4.640;2023-05-20T08:33:02;102486.75;;;22.17;45.42
67457;BME280;54319;52.038;4.640;2023-05-20T08:35:28;102485.19;;;21.92;45.56
67457;BME280;54319;52.038;4.640;2023-05-20T08:37:55;102483.31;;;21.80;46.94
67457;BME280;54319;52.038;4.640;2023-05-20T08:40:22;102472.88;;;21.30;48.01
67457;BME280;54319;52.038;4.640;2023-05-20T08:42:50;102461.41;;;21.14;47.75
67457;BME280;54319;52.038;4.640;2023-05-20T08:45:18;102465.53;;;20.76;47.32
67457;BME280;54319;52.038;4.640;2023-05-20T08:47:45;102458.19;;;20.46;49.15
67457;BME280;54319;52.038;4.640;2023-05-20T08:50:14;102457.59;;;20.32;49.90
67457;BME280;54319;52.038;4.640;2023-05-20T08:52:43;102453.28;;;19.93;49.23
67457;BME280;54319;52.038;4.640;2023-05-20T08:55:17;102470.38;;;19.72;50.50
67457;BME280;54319;52.038;4.640;2023-05-20T08:57:47;102454.16;;;19.75;51.13
67457;BME280;54319;52.038;4.640;2023-05-20T09:00:15;102455.63;;;19.90;51.45
67457;BME280;54319;52.038;4.640;2023-05-20T09:02:44;102435.94;;;19.98;53.20
67457;BME280;54319;52.038;4.640;2023-05-20T09:05:11;102443.94;;;20.18;50.96
67457;BME280;54319;52.038;4.640;2023-05-20T09:07:40;102438.75;;;20.22;50.25
67457;BME280;54319;52.038;4.640;2023-05-20T09:10:08;102442.56;;;19.97;49.67
67457;BME280;54319;52.038;4.640;2023-05-20T09:12:35;102448.63;;;19.87;49.39
67457;BME280;54319;52.038;4.640;2023-05-20T09:15:03;102438.75;;;20.10;49.16
67457;BME280;54319;52.038;4.640;2023-05-20T09:17:30;102437.69;;;20.23;49.64
67457;BME280;54319;52.038;4.640;2023-05-20T09:19:56;102441.78;;;20.32;48.61
67457;BME280;54319;52.038;4.640;2023-05-20T09:22:23;102431.31;;;20.34;47.65
67457;BME280;54319;52.038;4.640;2023-05-20T09:24:52;102425.41;;;20.66;47.65
67457;BME280;54319;52.038;4.640;2023-05-20T09:27:19;102425.75;;;20.94;47.54
67457;BME280;54319;52.038;4.640;2023-05-20T09:29:48;102413.44;;;21.02;46.65
67457;BME280;54319;52.038;4.640;2023-05-20T09:32:15;102425.19;;;21.33;46.20
67457;BME280;54319;52.038;4.640;2023-05-20T09:34:42;102422.09;;;21.46;45.75
67457;BME280;54319;52.038;4.640;2023-05-20T09:37:10;102409.88;;;21.18;44.03
67457;BME280;54319;52.038;4.640;2023-05-20T09:39:38;102411.47;;;21.14;43.64
67457;BME280;54319;52.038;4.640;2023-05-20T09:42:14;102416.03;;;21.20;42.28
67457;BME280;54319;52.038;4.640;2023-05-20T09:44:44;102410.41;;;21.44;41.59
67457;BME280;54319;52.038;4.640;2023-05-20T09:47:13;102415.81;;;21.51;42.51
67457;BME280;54319;52.038;4.640;2023-05-20T09:49:40;102395.63;;;21.55;41.20
67457;BME280;54319;52.038;4.640;2023-05-20T09:52:07;102407.91;;;21.43;40.45
67457;BME280;54319;52.038;4.640;2023-05-20T09:54:35;102402.84;;;21.57;39.30
67457;BME280;54319;52.038;4.640;2023-05-20T09:57:02;102405.03;;;21.66;40.72
67457;BME280;54319;52.038;4.640;2023-05-20T09:59:32;102405.41;;;21.58;41.46
67457;BME280;54319;52.038;4.640;2023-05-20T10:02:00;102406.38;;;21.64;40.58
67457;BME280;54319;52.038;4.640;2023-05-20T10:04:28;102396.34;;;21.63;39.94
67457;BME280;54319;52.038;4.640;2023-05-20T10:07:20;102393.69;;;21.68;39.92
67457;BME280;54319;52.038;4.640;2023-05-20T10:10:02;102375.66;;;21.88;38.07
67457;BME280;54319;52.038;4.640;2023-05-20T10:12:38;102381.72;;;21.85;38.01
67457;BME280;54319;52.038;4.640;2023-05-20T10:15:16;102382.75;;;21.95;38.30
67457;BME280;54319;52.038;4.640;2023-05-20T10:17:47;102385.09;;;22.04;36.30
67457;BME280;54319;52.038;4.640;2023-05-20T10:20:19;102379.81;;;22.02;36.98
67457;BME280;54319;52.038;4.640;2023-05-20T10:22:54;102371.38;;;21.97;37.72
67457;BME280;54319;52.038;4.640;2023-05-20T10:25:26;102373.84;;;22.10;37.52
67457;BME280;54319;52.038;4.640;2023-05-20T10:28:03;102372.06;;;22.21;37.54
67457;BME280;54319;52.038;4.640;2023-05-20T10:30:33;102372.72;;;22.46;36.63
67457;BME280;54319;52.038;4.640;2023-05-20T10:33:03;102354.50;;;22.55;36.15
67457;BME280;54319;52.038;4.640;2023-05-20T10:35:30;102365.06;;;22.75;35.19
67457;BME280;54319;52.038;4.640;2023-05-20T10:38:05;102358.06;;;22.73;36.41
67457;BME280;54319;52.038;4.640;2023-05-20T10:40:32;102349.97;;;22.93;36.00
67457;BME280;54319;52.038;4.640;2023-05-20T10:43:07;102353.75;;;22.82;36.12
67457;BME280;54319;52.038;4.640;2023-05-20T10:45:46;102344.16;;;22.95;36.65
67457;BME280;54319;52.038;4.640;2023-05-20T10:48:19;102358.63;;;22.52;39.72
67457;BME280;54319;52.038;4.640;2023-05-20T10:50:46;102345.47;;;22.08;40.22
67457;BME280;54319;52.038;4.640;2023-05-20T10:53:13;102353.53;;;22.10;40.56
67457;BME280;54319;52.038;4.640;2023-05-20T10:55:40;102342.69;;;21.74;40.25
67457;BME280;54319;52.038;4.640;2023-05-20T10:58:08;102345.69;;;21.73;40.55
67457;BME280;54319;52.038;4.640;2023-05-20T11:00:37;102341.25;;;21.89;41.78
67457;BME280;54319;52.038;4.640;2023-05-20T11:03:06;102334.66;;;21.78;40.49
67457;BME280;54319;52.038;4.640;2023-05-20T11:05:32;102330.41;;;21.87;40.41
67457;BME280;54319;52.038;4.640;2023-05-20T11:08:00;102339.63;;;21.93;41.82
67457;BME280;54319;52.038;4.640;2023-05-20T11:10:27;102338.72;;;22.04;41.21
67457;BME280;54319;52.038;4.640;2023-05-20T11:12:55;102330.03;;;22.18;41.78
67457;BME280;54319;52.038;4.640;2023-05-20T11:15:21;102329.81;;;22.41;41.53
67457;BME280;54319;52.038;4.640;2023-05-20T11:17:54;102328.31;;;22.51;40.86
67457;BME280;54319;52.038;4.640;2023-05-20T11:20:21;102328.06;;;22.35;39.57
67457;BME280;54319;52.038;4.640;2023-05-20T11:22:49;102324.94;;;22.49;41.88
67457;BME280;54319;52.038;4.640;2023-05-20T11:25:16;102329.94;;;22.30;40.42
67457;BME280;54319;52.038;4.640;2023-05-20T11:27:42;102333.53;;;22.47;40.63
67457;BME280;54319;52.038;4.640;2023-05-20T11:30:10;102321.66;;;22.74;40.03
67457;BME280;54319;52.038;4.640;2023-05-20T11:32:37;102321.63;;;22.96;40.38
67457;BME280;54319;52.038;4.640;2023-05-20T11:35:06;102319.78;;;22.80;38.84
67457;BME280;54319;52.038;4.640;2023-05-20T11:37:34;102308.31;;;22.76;39.13
67457;BME280;54319;52.038;4.640;2023-05-20T11:40:03;102313.13;;;22.59;38.89
67457;BME280;54319;52.038;4.640;2023-05-20T11:42:32;102309.47;;;22.19;40.64
67457;BME280;54319;52.038;4.640;2023-05-20T11:44:59;102311.63;;;22.51;40.46
67457;BME280;54319;52.038;4.640;2023-05-20T11:47:25;102297.19;;;22.15;38.55
67457;BME280;54319;52.038;4.640;2023-05-20T11:49:52;102299.91;;;22.49;40.38
67457;BME280;54319;52.038;4.640;2023-05-20T11:52:20;102299.00;;;22.88;40.35
67457;BME280;54319;52.038;4.640;2023-05-20T11:54:51;102268.94;;;22.62;39.56
67457;BME280;54319;52.038;4.640;2023-05-20T11:57:18;102295.09;;;22.89;39.27
67457;BME280;54319;52.038;4.640;2023-05-20T11:59:45;102292.09;;;23.18;38.14
67457;BME280;54319;52.038;4.640;2023-05-20T12:02:12;102288.53;;;22.95;36.72
67457;BME280;54319;52.038;4.640;2023-05-20T12:04:39;102289.38;;;22.73;37.77
67457;BME280;54319;52.038;4.640;2023-05-20T12:07:05;102280.06;;;22.23;39.78
67457;BME280;54319;52.038;4.640;2023-05-20T12:09:35;102274.97;;;22.15;39.37
67457;BME280;54319;52.038;4.640;2023-05-20T12:12:01;102276.25;;;22.29;39.14
67457;BME280;54319;52.038;4.640;2023-05-20T12:14:28;102277.28;;;22.23;41.29
67457;BME280;54319;52.038;4.640;2023-05-20T12:16:55;102279.56;;;22.26;39.62
67457;BME280;54319;52.038;4.640;2023-05-20T12:19:21;102276.72;;;22.21;40.44
67457;BME280;54319;52.038;4.640;2023-05-20T12:21:48;102268.22;;;22.10;40.11
67457;BME280;54319;52.038;4.640;2023-05-20T12:24:16;102267.78;;;22.19;41.14
67457;BME280;54319;52.038;4.640;2023-05-20T12:26:44;102274.28;;;22.24;39.47
67457;BME280;54319;52.038;4.640;2023-05-20T12:29:11;102268.72;;;22.24;40.99
67457;BME280;54319;52.038;4.640;2023-05-20T12:31:38;102253.63;;;21.98;40.06
67457;BME280;54319;52.038;4.640;2023-05-20T12:34:06;102274.25;;;22.02;40.54
67457;BME280;54319;52.038;4.640;2023-05-20T12:36:33;102266.50;;;21.87;40.04
67457;BME280;54319;52.038;4.640;2023-05-20T12:38:59;102265.91;;;22.02;39.19
67457;BME280;54319;52.038;4.640;2023-05-20T12:41:26;102267.34;;;22.27;41.12
67457;BME280;54319;52.038;4.640;2023-05-20T12:43:54;102269.28;;;22.66;39.50
67457;BME280;54319;52.038;4.640;2023-05-20T12:46:20;102274.59;;;23.22;40.17
67457;BME280;54319;52.038;4.640;2023-05-20T12:48:47;102259.88;;;23.54;37.54
67457;BME280;54319;52.038;4.640;2023-05-20T12:51:15;102259.25;;;23.47;38.64
67457;BME280;54319;52.038;4.640;2023-05-20T12:53:41;102254.59;;;23.58;37.64